createdAt,value
2024-03-13T00:02:51.015Z,50.92
2024-03-13T00:06:52.660Z,50.27
2024-03-13T00:10:54.419Z,50.55
2024-03-13T00:14:57.538Z,50.29
2024-03-13T00:18:59.508Z,50.52
2024-03-13T00:23:02.732Z,50.42
2024-03-13T00:27:04.779Z,49.80
2024-03-13T00:31:09.849Z,49.65
2024-03-13T00:35:14.993Z,49.90
2024-03-13T00:39:17.129Z,49.64
2024-03-13T00:43:19.443Z,49.95
2024-03-13T00:47:23.933Z,49.47
2024-03-13T00:51:25.533Z,49.59
2024-03-13T00:55:28.591Z,48.89
2024-03-13T00:59:31.237Z,49.26
2024-03-13T01:03:32.865Z,49.58
2024-03-13T01:07:36.023Z,49.54
2024-03-13T01:11:37.887Z,49.16
2024-03-13T01:15:39.537Z,48.42
2024-03-13T01:19:41.056Z,48.72
2024-03-13T01:23:42.915Z,48.91
2024-03-13T01:27:44.583Z,48.66
2024-03-13T01:31:46.127Z,49.05
2024-03-13T01:35:48.020Z,48.50
2024-03-13T01:39:50.240Z,48.41
2024-03-13T01:44:16.807Z,48.10
2024-03-13T01:48:37.247Z,48.49
2024-03-13T01:52:57.384Z,48.42
2024-03-13T01:57:13.793Z,48.13
2024-03-13T02:01:33.736Z,47.99
2024-03-13T02:05:39.021Z,47.79
2024-03-13T02:09:40.583Z,48.26
2024-03-13T02:13:42.146Z,48.08
2024-03-13T02:17:43.735Z,48.17
2024-03-13T02:21:48.433Z,47.77
2024-03-13T02:25:54.021Z,47.76
2024-03-13T02:29:55.574Z,47.37
2024-03-13T02:33:57.321Z,47.94
2024-03-13T02:37:58.774Z,47.44
2024-03-13T02:42:00.257Z,47.64
2024-03-13T02:46:03.299Z,47.61
2024-03-13T02:50:04.947Z,47.70
2024-03-13T02:54:07.008Z,47.35
2024-03-13T02:58:08.593Z,47.75
2024-03-13T03:02:10.737Z,46.87
2024-03-13T03:06:12.389Z,46.88
2024-03-13T03:10:14.211Z,46.91
2024-03-13T03:14:15.718Z,47.29
2024-03-13T03:18:19.178Z,47.64
2024-03-13T03:22:21.020Z,46.77
2024-03-13T03:26:22.593Z,47.19
2024-03-13T03:30:26.914Z,47.03
2024-03-13T03:34:28.431Z,47.00
2024-03-13T03:38:30.175Z,46.66
2024-03-13T03:42:31.636Z,47.07
2024-03-13T03:46:33.284Z,47.13
2024-03-13T03:50:34.853Z,46.82
2024-03-13T03:54:36.420Z,47.16
2024-03-13T03:58:37.945Z,47.40
2024-03-13T04:02:43.110Z,47.19
2024-03-13T04:06:44.998Z,47.30
2024-03-13T04:10:46.537Z,47.33
2024-03-13T04:14:48.068Z,47.56
2024-03-13T04:18:49.612Z,46.88
2024-03-13T04:22:51.681Z,47.48
2024-03-13T04:26:53.219Z,46.83
2024-03-13T04:30:55.120Z,47.11
2024-03-13T04:34:59.099Z,47.17
2024-03-13T04:39:01.100Z,47.22
2024-03-13T04:43:02.712Z,47.77
2024-03-13T04:47:04.317Z,47.58
2024-03-13T04:51:06.610Z,47.28
2024-03-13T04:55:08.344Z,47.51
2024-03-13T04:59:09.870Z,47.12
2024-03-13T05:03:11.795Z,47.78
2024-03-13T05:07:13.924Z,47.54
2024-03-13T05:11:15.883Z,47.46
2024-03-13T05:15:18.258Z,47.38
2024-03-13T05:19:20.506Z,47.54
2024-03-13T05:23:22.197Z,47.48
2024-03-13T05:27:24.034Z,47.65
2024-03-13T05:31:25.686Z,47.46
2024-03-13T05:35:27.442Z,47.61
2024-03-13T05:39:28.981Z,47.51
2024-03-13T05:43:30.480Z,47.61
2024-03-13T05:47:33.107Z,47.63
2024-03-13T05:51:36.422Z,47.83
2024-03-13T05:55:38.088Z,47.63
2024-03-13T05:59:39.581Z,48.31
2024-03-13T06:03:41.462Z,47.52
2024-03-13T06:07:43.082Z,47.85
2024-03-13T06:11:44.766Z,47.81
2024-03-13T06:15:46.435Z,47.44
2024-03-13T06:19:48.063Z,47.66
2024-03-13T06:23:49.787Z,47.40
2024-03-13T06:27:57.898Z,47.63
2024-03-13T06:32:01.980Z,47.91
2024-03-13T06:36:03.866Z,47.44
2024-03-13T06:40:05.881Z,47.84
2024-03-13T06:44:07.502Z,47.45
2024-03-13T06:48:09.374Z,47.89
2024-03-13T06:52:13.860Z,47.62
2024-03-13T06:56:16.158Z,48.01
2024-03-13T07:00:17.985Z,47.79
2024-03-13T07:04:19.977Z,47.93
2024-03-13T07:08:21.569Z,47.98
2024-03-13T07:12:24.427Z,48.24
2024-03-13T07:16:25.933Z,48.36
2024-03-13T07:20:27.611Z,48.35
2024-03-13T07:24:29.181Z,48.57
2024-03-13T07:28:33.842Z,48.55
2024-03-13T07:32:35.970Z,48.85
2024-03-13T07:36:38.941Z,48.43
2024-03-13T07:40:43.527Z,49.14
2024-03-13T07:44:46.757Z,49.09
2024-03-13T07:48:48.240Z,49.13
2024-03-13T07:52:50.353Z,48.94
2024-03-13T07:56:53.428Z,49.17
2024-03-13T08:00:54.927Z,49.40
2024-03-13T08:04:56.461Z,49.53
2024-03-13T09:09:39.436Z,51.33
2024-03-13T09:13:41.490Z,52.22
2024-03-13T09:17:43.427Z,52.59
2024-03-13T09:21:49.024Z,52.13
2024-03-13T09:25:50.544Z,51.86
2024-03-13T09:29:55.438Z,52.76
2024-03-13T09:33:57.119Z,52.71
2024-03-13T09:37:58.649Z,52.93
2024-03-13T09:42:00.586Z,53.66
2024-03-13T09:46:03.557Z,53.60
2024-03-13T09:50:08.123Z,53.23
2024-03-13T09:54:13.000Z,53.02
2024-03-13T09:58:16.520Z,53.56
2024-03-13T10:02:22.565Z,54.39
2024-03-13T10:06:27.133Z,54.04
2024-03-13T10:10:30.885Z,54.46
2024-03-13T10:14:33.153Z,53.76
2024-03-13T10:18:40.680Z,54.66
2024-03-13T10:22:42.196Z,54.13
2024-03-13T10:26:47.623Z,53.76
2024-03-13T10:30:49.198Z,54.46
2024-03-13T10:34:51.133Z,54.29
2024-03-13T10:38:54.408Z,54.26
2024-03-13T10:42:56.081Z,54.04
2024-03-13T10:47:00.282Z,54.19
2024-03-13T10:51:04.670Z,53.87
2024-03-13T10:55:09.632Z,54.03
2024-03-13T10:59:12.939Z,53.97
2024-03-13T11:03:14.593Z,54.20
2024-03-13T11:07:19.996Z,53.91
2024-03-13T11:11:23.631Z,54.61
2024-03-13T11:15:30.413Z,53.72
2024-03-13T11:19:34.505Z,54.21
2024-03-13T11:23:42.224Z,53.90
2024-03-13T11:27:49.819Z,53.30
2024-03-13T11:31:53.715Z,53.60
2024-03-13T11:35:56.490Z,54.22
2024-03-13T11:39:58.541Z,54.06
2024-03-13T11:44:00.154Z,54.50
2024-03-13T11:48:02.246Z,54.18
2024-03-13T11:52:04.263Z,53.94
2024-03-13T11:56:06.339Z,54.36
2024-03-13T12:00:22.018Z,53.86
2024-03-13T12:04:23.629Z,53.93
2024-03-13T12:08:25.143Z,54.21
2024-03-13T12:12:27.922Z,54.00
2024-03-13T12:16:29.467Z,54.47
2024-03-13T12:20:36.522Z,54.32
2024-03-13T12:24:38.479Z,54.76
2024-03-13T12:28:40.384Z,54.72
2024-03-13T12:32:41.954Z,54.37
2024-03-13T12:36:48.172Z,54.39
2024-03-13T12:40:49.628Z,54.40
2024-03-13T12:44:51.145Z,54.30
2024-03-13T12:48:52.735Z,54.37
2024-03-13T12:52:54.609Z,54.04
2024-03-13T12:56:56.569Z,54.77
2024-03-13T13:01:03.399Z,54.65
2024-03-13T13:05:06.858Z,54.26
2024-03-13T13:09:13.951Z,54.62
2024-03-13T13:13:15.492Z,54.36
2024-03-13T13:17:16.975Z,54.58
2024-03-13T13:21:18.439Z,54.36
2024-03-13T13:25:22.161Z,54.41
2024-03-13T13:29:24.511Z,54.12
2024-03-13T13:33:26.602Z,54.24
2024-03-13T13:37:28.553Z,53.85
2024-03-13T13:41:30.884Z,53.84
2024-03-13T13:45:33.219Z,53.99
2024-03-13T13:49:41.445Z,53.86
2024-03-13T13:53:43.020Z,54.28
2024-03-13T13:57:50.999Z,54.09
2024-03-13T14:01:56.479Z,54.06
2024-03-13T14:05:58.195Z,54.21
2024-03-13T14:10:00.187Z,54.43
2024-03-13T14:14:02.948Z,53.56
2024-03-13T14:18:11.202Z,53.30
2024-03-13T14:22:13.219Z,53.67
2024-03-13T14:26:15.012Z,54.39
2024-03-13T14:30:18.600Z,54.43
2024-03-13T14:34:21.672Z,54.37
2024-03-13T14:38:23.183Z,54.31
2024-03-13T14:46:33.494Z,54.14
2024-03-13T14:50:35.290Z,54.57
2024-03-13T14:54:36.800Z,54.65
2024-03-13T14:58:39.708Z,54.84
2024-03-13T15:02:42.286Z,54.08
2024-03-13T15:06:43.851Z,54.35
2024-03-13T15:10:45.475Z,55.10
2024-03-13T15:14:47.065Z,54.89
2024-03-13T15:18:49.253Z,55.14
2024-03-13T15:22:50.828Z,55.45
2024-03-13T15:26:52.653Z,54.80
2024-03-13T15:30:56.832Z,54.62
2024-03-13T15:34:58.693Z,54.59
2024-03-13T15:39:00.219Z,54.42
2024-03-13T15:43:03.968Z,55.15
2024-03-13T15:47:06.366Z,54.97
2024-03-13T15:51:08.057Z,54.85
2024-03-13T15:55:09.680Z,54.92
2024-03-13T15:59:13.882Z,55.17
2024-03-13T16:03:15.439Z,54.55
2024-03-13T16:07:17.290Z,54.41
2024-03-13T16:11:18.994Z,54.98
2024-03-13T16:15:20.860Z,55.52
2024-03-13T16:19:22.577Z,53.54
2024-03-13T16:23:24.426Z,54.77
2024-03-13T16:27:26.055Z,54.74
2024-03-13T16:31:27.720Z,54.37
2024-03-13T16:35:29.411Z,54.70
2024-03-13T16:39:31.083Z,56.32
2024-03-13T16:43:33.396Z,56.96
2024-03-13T16:47:35.549Z,55.58
2024-03-13T16:51:37.518Z,57.02
2024-03-13T16:55:39.038Z,56.72
2024-03-13T16:59:40.563Z,55.68
2024-03-13T17:03:43.503Z,56.43
2024-03-13T17:07:45.327Z,55.35
2024-03-13T17:11:47.112Z,58.01
2024-03-13T17:15:48.636Z,56.63
2024-03-13T17:19:52.328Z,57.48
2024-03-13T17:23:54.238Z,58.36
2024-03-13T17:27:55.800Z,57.73
2024-03-13T17:31:58.344Z,57.96
2024-03-13T17:35:59.958Z,58.35
2024-03-13T17:40:01.926Z,58.36
2024-03-13T17:44:05.295Z,57.93
2024-03-13T17:48:10.364Z,57.89
2024-03-13T17:52:12.282Z,58.09
2024-03-13T17:56:13.986Z,59.02
2024-03-13T18:00:17.200Z,58.26
2024-03-13T18:04:20.039Z,58.46
2024-03-13T18:08:21.576Z,58.85
2024-03-13T18:12:24.633Z,58.61
2024-03-13T18:16:26.772Z,58.43
2024-03-13T18:20:31.056Z,57.94
2024-03-13T18:24:32.613Z,58.34
2024-03-13T18:28:34.228Z,58.30
2024-03-13T18:32:44.082Z,58.64
2024-03-13T18:36:48.488Z,58.49
2024-03-13T18:40:50.032Z,58.84
2024-03-13T18:44:51.742Z,57.50
2024-03-13T18:48:53.296Z,59.35
2024-03-13T18:52:55.022Z,58.96
2024-03-13T18:56:56.584Z,58.84
2024-03-13T19:00:58.080Z,58.65
2024-03-13T19:05:03.207Z,58.20
2024-03-13T19:09:11.969Z,59.00
2024-03-13T19:13:13.578Z,58.24
2024-03-13T19:17:15.117Z,58.21
2024-03-13T19:21:16.908Z,58.36
2024-03-13T19:25:18.665Z,59.15
2024-03-13T19:29:20.139Z,59.43
2024-03-13T19:33:21.909Z,58.06
2024-03-13T19:37:23.473Z,58.35
2024-03-13T19:41:25.398Z,58.83
2024-03-13T19:45:27.419Z,58.76
2024-03-13T19:49:28.981Z,58.98
2024-03-13T19:53:30.489Z,58.96
2024-03-13T19:57:31.966Z,58.94
2024-03-13T20:01:34.380Z,58.42
2024-03-13T20:05:36.507Z,58.17
2024-03-13T20:09:39.607Z,58.35
2024-03-13T20:13:42.940Z,59.28
2024-03-13T20:17:45.065Z,58.19
2024-03-13T20:21:47.706Z,59.66
2024-03-13T20:25:49.292Z,59.92
2024-03-13T20:29:50.874Z,59.18
2024-03-13T20:33:52.685Z,58.24
2024-03-13T20:37:54.930Z,59.32
2024-03-13T20:41:56.523Z,58.41
2024-03-13T20:45:58.991Z,59.06
2024-03-13T20:50:01.906Z,59.25
2024-03-13T20:54:06.127Z,59.17
2024-03-13T20:58:08.644Z,58.75
2024-03-13T21:02:10.305Z,59.26
2024-03-13T21:06:11.935Z,59.25
2024-03-13T21:10:15.257Z,59.48
2024-03-13T21:14:17.777Z,59.07
2024-03-13T21:18:21.120Z,58.94
2024-03-13T21:22:22.648Z,58.88
2024-03-13T21:26:24.260Z,59.33
2024-03-13T21:30:25.809Z,59.01
2024-03-13T21:34:32.468Z,59.17
2024-03-13T21:38:37.835Z,58.93
2024-03-13T21:42:40.375Z,59.17
2024-03-13T21:46:41.846Z,59.16
2024-03-13T21:50:43.980Z,59.23
2024-03-13T21:54:45.643Z,59.13
2024-03-13T21:58:47.102Z,58.77
2024-03-13T22:02:48.869Z,58.88
2024-03-13T22:06:53.170Z,59.16
2024-03-13T22:10:54.990Z,58.44
2024-03-13T22:14:56.527Z,59.04
2024-03-13T22:19:00.811Z,58.47
2024-03-13T22:23:03.826Z,59.37
2024-03-13T22:27:05.361Z,59.13
2024-03-13T22:31:07.258Z,58.92
2024-03-13T22:35:08.875Z,59.22
2024-03-13T22:39:11.934Z,59.12
2024-03-13T22:43:13.427Z,59.19
2024-03-13T22:47:16.095Z,58.94
2024-03-13T22:51:17.774Z,59.16
2024-03-13T22:55:19.319Z,58.51
2024-03-13T22:59:21.037Z,58.75
2024-03-13T23:03:22.621Z,58.64
2024-03-13T23:07:27.302Z,59.27
2024-03-13T23:11:28.884Z,58.71
2024-03-13T23:15:31.118Z,58.51
2024-03-13T23:19:32.691Z,58.52
2024-03-13T23:23:34.195Z,58.71
2024-03-13T23:27:37.726Z,58.98
2024-03-13T23:31:43.668Z,59.10
2024-03-13T23:35:45.254Z,58.99
2024-03-13T23:39:46.719Z,58.88
2024-03-13T23:43:48.208Z,58.75
2024-03-13T23:47:49.782Z,58.86
2024-03-13T23:51:51.286Z,58.92
2024-03-13T23:55:52.961Z,58.92
2024-03-13T23:59:54.490Z,58.99
